Aérodrome :
LOGIN :

S'inscrire | Disclaimer

   EN    FR    IT 

 










Légende :    VFR   VFR Marginal   IFR   IFR Intensif   IFR Très Intensif
Visi : 
Plafond : 
>= 8 km
>= 3000ft
5 à 8 km
1000 à 3000 ft
1500m à 5 km
500 à 1000 ft
800 à 1500m
200 à 500 ft
< 800m
< 200 ft
Symboles :   Orages  Brouillard  Fortes neiges  Fortes précipitations  Vent > 20 kt
SIGMETs :   Divers  Orages  Givrage  Turbulence  Onde Orograph.  Cendres Volcan.






- Altitude de l'aérodrome : 53 ft
- Code IATA : HAM


EDDH - Hamburg

DERNIER METAR :
  • 041120Z 21015KT 180V240 9999 BKN020 17/13 Q1011 TEMPO 23015G25KT

METARs EXPIRÉS :
  • 041050Z 22014KT 9999 BKN019 18/13 Q1011 TEMPO 23015G25KT
  • 041020Z 22014KT 9999 BKN019 17/13 Q1011 TEMPO 23015G25KT
  • 040950Z 23014KT 9999 BKN019 17/13 Q1011 TEMPO 23015G25KT
  • 040920Z 22013KT 190V250 9999 BKN019 17/13 Q1011 TEMPO 23015G25KT
  • 040850Z 23013KT 9999 BKN017 17/13 Q1011 TEMPO 23015G25KT

TAF TAF EDDH
Valide du 04 à 12h jusqu'au 05 à 18h UTC


041100Z 0412/0518 22012KT 9999 SCT015 BKN020
TEMPO 0412/0415 22015G25KT BKN012
BECMG 0415/0417 BKN012
TEMPO 0416/0421 BKN008
TEMPO 0417/0508 4000 -DZRA
BECMG 0421/0423 BKN008
PROB30
TEMPO 0500/0507 2500 DZRA BKN003
BECMG 0507/0509 23015G25KT SCT010 BKN015
TEMPO 0509/0511 BKN008
PROB30
TEMPO 0511/0515 24020G30KT RA BKN012
BECMG 0515/0518 26010KT



MET'MAP, la Météo Aéronautique d'un coup d'oeil ! - Copyright ORBIFLY Décembre 2007 - Disclaimer

ORBIFLY MET'MAP TEAM :

Programmation & Développement : Alexandra Zaïnal
Sur une idée originale de : Baudouin d'Aumeries
Assistance à la programmation : Marc-Olivier Méhu
Soutien technique & logistique : Manuel Goepfert

Contact : metmap@orbifly.com




SOURCES & CREDITS :

   NOAA